Time;durP1;ratioP1;P1;durP2;ratioP2;P2;SDS_P1;SDS_P2;PMS_P1;PMS_P2;Temp;Humidity;BMP_temperature;BMP_pressure;BME280_temperature;BME280_humidity;BME280_pressure;Samples;Min_cycle;Max_cycle;Signal;HPM_P1;HPM_P2
2022/07/02 00:02:19;;;;;;;8.95;5.95;;;16.30;99.90;;;;;;5036877;28;20091;-78
2022/07/02 00:04:51;;;;;;;12.63;6.20;;;16.30;99.90;;;;;;5039765;28;20033;-78
2022/07/02 00:07:17;;;;;;;11.07;5.45;;;16.20;99.90;;;;;;5047484;28;20037;-78
2022/07/02 00:09:42;;;;;;;11.90;6.10;;;16.20;99.90;;;;;;5039662;28;21784;-78
2022/07/02 00:12:10;;;;;;;11.80;5.95;;;16.20;99.90;;;;;;5039580;28;20085;-79
2022/07/02 00:14:36;;;;;;;10.23;5.93;;;16.20;99.90;;;;;;5042177;28;20040;-80
2022/07/02 00:17:03;;;;;;;9.88;5.80;;;16.10;99.90;;;;;;5037153;28;20035;-78
2022/07/02 00:19:30;;;;;;;9.52;5.22;;;16.10;99.90;;;;;;5035427;28;20051;-78
2022/07/02 00:21:58;;;;;;;9.05;5.20;;;16.10;99.90;;;;;;5041724;28;20031;-79
2022/07/02 00:24:24;;;;;;;9.15;5.10;;;16.10;99.90;;;;;;5038899;28;20025;-78
2022/07/02 00:26:55;;;;;;;9.57;5.10;;;16.10;99.90;;;;;;5036367;28;20033;-79
2022/07/02 00:30:00;;;;;;;8.65;6.32;;;16.00;99.90;;;;;;5034982;28;20108;-78
2022/07/02 00:32:28;;;;;;;13.80;6.45;;;16.00;99.90;;;;;;5008591;28;20032;-78
2022/07/02 00:34:56;;;;;;;11.38;5.53;;;16.00;99.90;;;;;;5029446;28;20662;-78
2022/07/02 00:37:26;;;;;;;11.68;5.80;;;16.00;99.90;;;;;;5042296;28;20065;-79
2022/07/02 00:39:53;;;;;;;7.72;5.80;;;15.90;99.90;;;;;;5037394;28;20080;-79
2022/07/02 00:42:20;;;;;;;9.93;5.47;;;15.90;99.90;;;;;;5043792;28;20021;-78
2022/07/02 00:44:47;;;;;;;11.82;5.90;;;15.90;99.90;;;;;;5041058;28;20080;-79
2022/07/02 00:47:14;;;;;;;9.45;5.97;;;15.90;99.90;;;;;;5038010;28;20120;-78
2022/07/02 00:49:40;;;;;;;8.93;5.93;;;15.90;99.90;;;;;;5024914;28;20033;-79
2022/07/02 00:52:07;;;;;;;9.15;6.20;;;15.90;99.90;;;;;;5043816;28;20048;-78
2022/07/02 00:54:35;;;;;;;10.23;5.97;;;15.80;99.90;;;;;;5039458;28;20040;-78
2022/07/02 00:57:02;;;;;;;12.10;6.03;;;15.80;99.90;;;;;;5021965;28;20122;-78
2022/07/02 00:59:28;;;;;;;10.23;6.28;;;15.80;99.90;;;;;;5022420;28;20021;-79
2022/07/02 01:01:54;;;;;;;13.27;6.68;;;15.80;99.90;;;;;;5040892;28;20036;-79
2022/07/02 01:04:20;;;;;;;10.25;5.90;;;15.80;99.90;;;;;;5040166;28;20080;-79
2022/07/02 01:06:48;;;;;;;14.57;6.50;;;15.70;99.90;;;;;;5042615;28;20057;-78
2022/07/02 01:12:02;;;;;;;14.25;7.03;;;15.70;99.90;;;;;;5038773;28;20041;-79
2022/07/02 01:14:28;;;;;;;11.75;6.07;;;15.70;99.90;;;;;;5043608;28;20031;-78
2022/07/02 01:16:55;;;;;;;11.75;7.45;;;15.70;99.90;;;;;;5041273;28;20060;-79
2022/07/02 01:19:23;;;;;;;13.80;7.18;;;15.70;99.90;;;;;;5042975;28;20017;-78
2022/07/02 01:22:11;;;;;;;10.52;7.18;;;15.70;99.90;;;;;;5034384;28;20061;-79
2022/07/02 01:24:37;;;;;;;9.95;6.05;;;15.70;99.90;;;;;;5042679;28;20033;-79
2022/07/02 01:27:03;;;;;;;9.05;7.07;;;15.70;99.90;;;;;;5038682;28;20452;-79
2022/07/02 01:29:29;;;;;;;12.48;7.25;;;15.60;99.90;;;;;;5037747;28;20108;-79
2022/07/02 01:31:55;;;;;;;10.77;6.90;;;15.60;99.90;;;;;;5035561;28;20076;-78
2022/07/02 01:34:21;;;;;;;10.45;7.05;;;15.60;99.90;;;;;;5039697;28;20033;-77
2022/07/02 01:36:48;;;;;;;9.90;6.65;;;15.60;99.90;;;;;;5043325;28;20025;-80
2022/07/02 01:39:13;;;;;;;14.02;7.32;;;15.60;99.90;;;;;;5041208;28;20052;-79
2022/07/02 01:41:39;;;;;;;14.27;7.53;;;15.60;99.90;;;;;;5034133;28;20072;-79
2022/07/02 01:44:06;;;;;;;9.30;6.63;;;15.60;99.90;;;;;;5022243;28;20057;-79
2022/07/02 01:46:33;;;;;;;12.07;6.45;;;15.60;99.90;;;;;;5042571;28;20068;-79
2022/07/02 01:48:59;;;;;;;8.20;6.32;;;15.50;99.90;;;;;;5059511;28;20038;-80
2022/07/02 01:51:24;;;;;;;10.70;6.57;;;15.50;99.90;;;;;;5047078;28;20040;-80
2022/07/02 01:53:50;;;;;;;10.82;6.82;;;15.50;99.90;;;;;;5038531;28;20028;-80
2022/07/02 01:56:16;;;;;;;10.05;6.10;;;15.50;99.90;;;;;;5041202;28;20096;-78
2022/07/02 01:58:42;;;;;;;11.68;6.40;;;15.50;99.90;;;;;;5043697;28;20044;-78
2022/07/02 02:01:07;;;;;;;9.23;6.38;;;15.50;99.90;;;;;;5040882;28;20036;-79
2022/07/02 02:03:33;;;;;;;9.32;6.60;;;15.50;99.90;;;;;;5043850;28;20028;-78
2022/07/02 02:05:59;;;;;;;8.10;6.00;;;15.50;99.90;;;;;;5043198;28;20409;-78
2022/07/02 02:08:25;;;;;;;8.20;5.95;;;15.50;99.90;;;;;;5037675;28;20032;-79
2022/07/02 02:10:50;;;;;;;8.63;5.90;;;15.40;99.90;;;;;;5024032;28;20113;-79
2022/07/02 02:13:16;;;;;;;10.25;6.20;;;15.40;99.90;;;;;;5039943;28;20017;-78
2022/07/02 02:15:42;;;;;;;9.27;5.55;;;15.40;99.90;;;;;;5046260;28;20113;-79
2022/07/02 02:18:07;;;;;;;11.02;6.03;;;15.40;99.90;;;;;;5040454;28;20112;-78
2022/07/02 02:20:34;;;;;;;11.00;5.88;;;15.40;99.90;;;;;;5042535;28;20082;-78
2022/07/02 02:23:01;;;;;;;11.57;6.78;;;15.40;99.90;;;;;;5043525;28;20025;-79
2022/07/02 02:25:26;;;;;;;9.05;5.72;;;15.40;99.90;;;;;;5045689;28;20038;-79
2022/07/02 02:27:52;;;;;;;8.88;5.57;;;15.40;99.90;;;;;;5022475;28;20032;-78
2022/07/02 02:30:18;;;;;;;9.63;5.88;;;15.30;99.90;;;;;;5045829;28;20042;-78
2022/07/02 02:32:44;;;;;;;10.77;5.63;;;15.30;99.90;;;;;;5038988;28;20032;-76
2022/07/02 02:35:10;;;;;;;10.40;5.28;;;15.30;99.90;;;;;;5038603;28;20035;-78
2022/07/02 02:37:35;;;;;;;7.18;5.45;;;15.30;99.90;;;;;;5037960;28;20047;-78
2022/07/02 02:40:01;;;;;;;11.98;5.97;;;15.30;99.90;;;;;;5027171;28;20028;-79
2022/07/02 02:42:27;;;;;;;6.47;5.03;;;15.30;99.90;;;;;;5041686;28;20017;-78
2022/07/02 02:44:52;;;;;;;6.78;5.40;;;15.20;99.90;;;;;;5024374;28;20584;-79
2022/07/02 02:47:21;;;;;;;6.32;4.97;;;15.20;99.90;;;;;;5039224;28;20392;-79
2022/07/02 02:49:47;;;;;;;8.00;4.63;;;15.20;99.90;;;;;;5048000;28;20492;-78
2022/07/02 02:52:13;;;;;;;12.88;6.28;;;15.20;99.90;;;;;;5038301;28;20036;-79
2022/07/02 02:54:38;;;;;;;8.77;4.97;;;15.20;99.90;;;;;;5051835;28;20034;-77
2022/07/02 02:57:04;;;;;;;8.15;5.30;;;15.20;99.90;;;;;;5041710;28;20040;-76
2022/07/02 02:59:30;;;;;;;7.70;4.45;;;15.20;99.90;;;;;;5050210;28;20025;-77
2022/07/02 03:01:56;;;;;;;10.10;5.55;;;15.20;99.90;;;;;;5047623;28;20033;-77
2022/07/02 03:04:22;;;;;;;6.35;4.70;;;15.20;99.90;;;;;;5041934;28;20033;-78
2022/07/02 03:06:47;;;;;;;6.53;4.78;;;15.20;99.90;;;;;;5036202;28;20048;-78
2022/07/02 03:09:13;;;;;;;6.85;5.15;;;15.20;99.90;;;;;;5043820;28;20120;-78
2022/07/02 03:11:39;;;;;;;9.55;4.75;;;15.10;99.90;;;;;;5031665;28;20029;-78
2022/07/02 03:14:04;;;;;;;9.95;5.00;;;15.10;99.90;;;;;;5030466;28;20041;-79
2022/07/02 03:16:30;;;;;;;9.20;5.00;;;15.10;99.90;;;;;;5041933;28;20425;-78
2022/07/02 03:18:56;;;;;;;6.68;4.55;;;15.10;99.90;;;;;;5039793;28;20041;-79
2022/07/02 03:21:21;;;;;;;8.63;5.38;;;15.10;99.90;;;;;;5024758;28;20029;-77
2022/07/02 03:23:47;;;;;;;9.32;4.95;;;15.10;99.90;;;;;;5037614;28;20455;-79
2022/07/02 03:26:13;;;;;;;9.38;4.78;;;15.10;99.90;;;;;;5040461;28;20493;-77
2022/07/02 03:28:38;;;;;;;6.15;4.55;;;15.10;99.90;;;;;;5042772;28;20029;-79
2022/07/02 03:31:04;;;;;;;7.28;4.43;;;15.10;99.90;;;;;;5041321;28;20032;-78
2022/07/02 03:33:30;;;;;;;8.10;4.95;;;15.10;99.90;;;;;;5046118;28;20033;-76
2022/07/02 03:35:56;;;;;;;9.55;5.00;;;15.10;99.90;;;;;;5040907;28;20044;-79
2022/07/02 03:38:21;;;;;;;5.70;4.45;;;15.10;99.90;;;;;;5020264;28;20025;-79
2022/07/02 03:40:47;;;;;;;6.47;4.35;;;15.20;99.90;;;;;;5042080;28;20030;-77
2022/07/02 03:43:13;;;;;;;6.00;4.72;;;15.20;99.90;;;;;;5023755;28;20024;-78
2022/07/02 03:45:38;;;;;;;6.78;4.90;;;15.20;99.90;;;;;;5037683;28;20110;-79
2022/07/02 03:48:05;;;;;;;9.38;4.60;;;15.20;99.90;;;;;;5039630;28;20037;-78
2022/07/02 03:50:30;;;;;;;10.20;4.97;;;15.20;99.90;;;;;;5040425;28;20025;-79
2022/07/02 03:52:56;;;;;;;6.50;4.60;;;15.30;99.90;;;;;;5024753;28;20444;-79
2022/07/02 03:55:22;;;;;;;7.70;4.38;;;15.30;99.90;;;;;;5040676;28;20037;-78
2022/07/02 03:57:47;;;;;;;9.05;4.38;;;15.30;99.90;;;;;;5041409;28;20045;-79
2022/07/02 04:00:13;;;;;;;10.00;4.63;;;15.30;99.90;;;;;;5023451;28;20029;-79
2022/07/02 04:02:39;;;;;;;8.25;4.40;;;15.30;99.90;;;;;;5025954;28;20036;-79
2022/07/02 04:05:06;;;;;;;6.75;4.15;;;15.30;99.90;;;;;;5042836;28;20033;-79
2022/07/02 04:07:31;;;;;;;8.68;4.45;;;15.30;99.90;;;;;;5035699;28;20429;-79
2022/07/02 04:09:57;;;;;;;6.47;4.35;;;15.30;99.90;;;;;;5041156;28;20025;-78
2022/07/02 04:12:23;;;;;;;6.90;4.40;;;15.40;99.90;;;;;;5037195;28;20029;-78
2022/07/02 04:14:49;;;;;;;6.20;4.18;;;15.40;99.90;;;;;;5033464;28;20045;-78
2022/07/02 04:17:15;;;;;;;6.70;4.88;;;15.40;99.90;;;;;;5031649;28;20033;-78
2022/07/02 04:19:41;;;;;;;5.40;3.97;;;15.40;99.90;;;;;;5037374;28;20034;-79
2022/07/02 04:22:07;;;;;;;8.00;4.18;;;15.40;99.90;;;;;;5039248;28;20021;-77
2022/07/02 04:24:32;;;;;;;5.65;4.20;;;15.40;99.90;;;;;;5039861;28;20026;-78
2022/07/02 04:26:58;;;;;;;5.53;3.95;;;16.20;99.90;;;;;;5036729;28;20224;-78
2022/07/02 04:29:24;;;;;;;8.95;4.38;;;16.00;99.90;;;;;;5037485;28;20476;-78
2022/07/02 04:31:50;;;;;;;6.07;3.90;;;15.80;99.90;;;;;;5039219;28;20080;-78
2022/07/02 04:34:15;;;;;;;6.72;4.28;;;15.70;99.90;;;;;;5040002;28;20143;-78
2022/07/02 04:36:41;;;;;;;5.75;4.55;;;15.70;99.90;;;;;;5041214;28;20543;-78
2022/07/02 04:39:07;;;;;;;5.28;3.80;;;15.70;99.90;;;;;;5037477;28;20021;-79
2022/07/02 04:41:33;;;;;;;8.07;4.13;;;15.70;99.90;;;;;;5040093;28;20052;-78
2022/07/02 04:43:59;;;;;;;6.45;4.60;;;15.70;99.90;;;;;;5019508;28;20025;-80
2022/07/02 04:46:25;;;;;;;10.27;4.88;;;15.70;99.90;;;;;;5038383;28;20025;-77
2022/07/02 04:48:51;;;;;;;6.70;4.00;;;15.70;99.90;;;;;;5035185;28;20635;-77
2022/07/02 04:51:17;;;;;;;8.65;3.95;;;15.80;99.90;;;;;;5038601;28;20033;-77
2022/07/02 04:53:43;;;;;;;6.20;4.38;;;15.80;99.90;;;;;;5040422;28;20036;-78
2022/07/02 04:56:09;;;;;;;9.60;4.95;;;15.80;99.90;;;;;;5038309;28;20029;-79
2022/07/02 04:58:35;;;;;;;5.60;4.05;;;15.80;99.90;;;;;;5035092;28;20064;-78
2022/07/02 05:01:01;;;;;;;11.60;4.65;;;15.80;99.90;;;;;;5036235;28;20076;-79
2022/07/02 05:03:27;;;;;;;6.68;4.25;;;15.80;99.90;;;;;;5039875;28;20027;-79
2022/07/02 05:05:53;;;;;;;6.68;3.67;;;15.90;99.90;;;;;;5037636;28;20053;-79
2022/07/02 05:08:24;;;;;;;7.07;4.10;;;15.90;99.90;;;;;;5034535;28;20065;-79
2022/07/02 05:10:50;;;;;;;5.60;3.90;;;15.90;99.90;;;;;;5057830;28;20061;-78
2022/07/02 05:13:16;;;;;;;9.27;3.72;;;16.00;99.90;;;;;;5061486;28;20033;-79
2022/07/02 05:15:42;;;;;;;6.28;3.97;;;16.00;99.90;;;;;;5058557;28;20072;-77
2022/07/02 05:18:07;;;;;;;6.53;3.55;;;16.00;99.90;;;;;;5059303;28;20025;-77
2022/07/02 05:20:33;;;;;;;5.45;4.20;;;16.00;99.90;;;;;;5045179;28;20040;-77
2022/07/02 05:22:59;;;;;;;6.72;3.70;;;16.10;99.90;;;;;;5064777;28;20070;-77
2022/07/02 05:25:24;;;;;;;6.53;3.63;;;16.10;99.90;;;;;;5050066;28;20038;-79
2022/07/02 05:27:50;;;;;;;5.63;3.55;;;16.10;99.90;;;;;;5044112;28;20518;-79
2022/07/02 05:30:16;;;;;;;6.50;3.55;;;16.10;99.90;;;;;;5043030;28;20037;-78
2022/07/02 05:32:41;;;;;;;7.80;4.00;;;16.20;99.90;;;;;;5044573;28;20073;-79
2022/07/02 05:35:08;;;;;;;7.70;4.03;;;16.10;99.90;;;;;;5046979;28;20113;-79
2022/07/02 05:37:33;;;;;;;5.38;3.22;;;16.20;99.90;;;;;;5041401;28;20068;-79
2022/07/02 05:39:59;;;;;;;6.43;3.67;;;16.20;99.90;;;;;;5045763;28;20481;-79
2022/07/02 05:42:28;;;;;;;4.80;3.15;;;16.20;99.90;;;;;;5038434;28;21008;-78
2022/07/02 05:44:54;;;;;;;8.15;3.95;;;16.30;99.90;;;;;;5042881;28;20025;-78
2022/07/02 05:47:19;;;;;;;5.47;3.13;;;16.30;99.90;;;;;;5042808;28;20140;-79
2022/07/02 05:49:45;;;;;;;4.60;3.30;;;16.40;99.90;;;;;;5040424;28;20506;-79
2022/07/02 05:52:11;;;;;;;4.03;2.80;;;16.40;99.90;;;;;;5023770;28;20040;-78
2022/07/02 05:54:37;;;;;;;4.07;2.70;;;16.40;99.90;;;;;;5040216;28;20135;-78
2022/07/02 05:57:03;;;;;;;6.45;3.03;;;16.50;99.90;;;;;;5020447;28;20033;-78
2022/07/02 05:59:28;;;;;;;7.03;3.20;;;16.50;99.90;;;;;;5039425;28;20038;-79
2022/07/02 06:01:54;;;;;;;6.60;3.30;;;16.60;99.90;;;;;;5044766;28;20051;-79
2022/07/02 06:04:20;;;;;;;4.80;2.75;;;16.60;99.90;;;;;;5038589;28;20100;-79
2022/07/02 06:09:30;;;;;;;4.50;2.90;;;16.60;99.90;;;;;;5041892;28;20021;-78
2022/07/02 06:11:56;;;;;;;6.45;3.00;;;16.60;99.90;;;;;;5042247;28;20469;-80
2022/07/02 06:14:21;;;;;;;6.38;2.85;;;16.70;99.90;;;;;;5041054;28;20144;-80
2022/07/02 06:16:47;;;;;;;7.72;2.63;;;16.70;99.90;;;;;;5035312;28;20033;-80
2022/07/02 06:19:13;;;;;;;5.80;2.72;;;16.80;99.90;;;;;;5035762;28;20096;-78
2022/07/02 06:21:40;;;;;;;5.20;2.50;;;16.90;99.90;;;;;;5035359;28;20176;-79
2022/07/02 06:24:10;;;;;;;10.48;2.78;;;16.90;99.90;;;;;;5038029;28;20079;-79
2022/07/02 06:26:36;;;;;;;8.32;3.42;;;17.00;99.90;;;;;;5038587;28;20469;-78
2022/07/02 06:29:01;;;;;;;5.03;2.80;;;17.00;99.90;;;;;;5039174;28;20057;-79
2022/07/02 06:31:27;;;;;;;6.43;2.45;;;17.00;99.90;;;;;;5042974;28;20025;-79
2022/07/02 06:33:53;;;;;;;2.85;1.90;;;17.10;99.90;;;;;;5029212;28;20029;-78
2022/07/02 06:36:21;;;;;;;6.07;2.38;;;17.10;99.90;;;;;;5036952;28;20080;-78
2022/07/02 06:38:48;;;;;;;3.35;1.98;;;17.20;99.90;;;;;;5035278;28;20032;-77
2022/07/02 06:46:30;;;;;;;6.20;1.67;;;17.30;99.90;;;;;;4984834;28;20120;-77
2022/07/02 06:48:56;;;;;;;6.47;1.90;;;17.40;99.90;;;;;;4990628;28;20639;-77
2022/07/02 06:51:22;;;;;;;4.07;1.85;;;17.40;99.90;;;;;;5002710;28;20080;-79
2022/07/02 06:53:48;;;;;;;4.15;1.80;;;17.50;99.90;;;;;;4988570;28;20517;-77
2022/07/02 06:56:14;;;;;;;3.38;1.52;;;17.50;99.90;;;;;;4975251;28;20030;-78
2022/07/02 06:58:40;;;;;;;5.07;1.45;;;17.60;99.90;;;;;;4991618;28;20036;-77
2022/07/02 07:01:06;;;;;;;3.67;1.63;;;17.60;99.90;;;;;;4987934;28;20030;-78
2022/07/02 07:03:31;;;;;;;4.03;1.45;;;17.60;99.90;;;;;;4989148;28;20041;-78
2022/07/02 07:05:57;;;;;;;4.63;1.65;;;17.70;99.90;;;;;;4992704;28;20494;-78
2022/07/02 07:08:23;;;;;;;4.47;1.80;;;17.70;99.90;;;;;;4988530;28;20038;-77
2022/07/02 07:10:48;;;;;;;4.20;1.70;;;17.80;99.90;;;;;;4989747;28;20107;-80
2022/07/02 07:13:14;;;;;;;3.08;2.03;;;17.80;99.90;;;;;;4992195;28;20026;-80
2022/07/02 07:15:40;;;;;;;3.65;1.60;;;17.80;99.90;;;;;;4993280;28;20035;-78
2022/07/02 07:18:06;;;;;;;3.28;1.60;;;17.90;99.90;;;;;;4991877;28;20041;-80
2022/07/02 07:20:32;;;;;;;7.93;1.52;;;18.00;99.90;;;;;;4981028;28;20034;-78
2022/07/02 07:22:59;;;;;;;4.45;1.70;;;18.30;99.90;;;;;;4994227;28;20485;-78
2022/07/02 07:25:25;;;;;;;7.10;2.10;;;18.30;99.90;;;;;;4995378;28;20026;-79
2022/07/02 07:27:51;;;;;;;8.55;2.10;;;18.20;99.90;;;;;;4996110;28;20084;-80
2022/07/02 07:30:17;;;;;;;3.25;1.45;;;18.20;99.90;;;;;;4998736;28;20030;-79
2022/07/02 07:32:43;;;;;;;4.95;1.55;;;18.30;99.90;;;;;;4993826;28;20040;-79
2022/07/02 07:35:09;;;;;;;3.28;1.45;;;18.30;99.90;;;;;;4996591;28;20026;-79
2022/07/02 07:37:36;;;;;;;4.22;1.90;;;18.30;99.90;;;;;;4996888;28;20799;-78
2022/07/02 07:40:11;;;;;;;5.97;2.03;;;18.30;99.90;;;;;;4990129;28;20026;-79
2022/07/02 07:42:37;;;;;;;6.32;1.50;;;18.30;99.90;;;;;;4992211;28;20051;-79
2022/07/02 07:45:03;;;;;;;6.95;1.75;;;18.50;99.90;;;;;;4995417;28;20034;-78
2022/07/02 07:47:29;;;;;;;4.72;1.38;;;18.50;99.90;;;;;;4995251;28;20034;-78
2022/07/02 07:49:55;;;;;;;5.53;1.67;;;18.60;99.90;;;;;;5003503;28;20037;-79
2022/07/02 07:52:21;;;;;;;3.80;1.50;;;18.60;99.90;;;;;;4998214;28;20030;-78
2022/07/02 07:54:47;;;;;;;6.07;1.63;;;18.60;99.90;;;;;;5022446;28;20077;-78
2022/07/02 07:57:12;;;;;;;2.72;1.38;;;18.70;99.90;;;;;;4995020;28;20022;-78
2022/07/02 07:59:38;;;;;;;6.35;1.38;;;18.70;99.90;;;;;;4995335;28;20234;-78
2022/07/02 08:02:04;;;;;;;3.50;1.38;;;18.70;99.90;;;;;;4996084;28;20065;-77
2022/07/02 08:04:30;;;;;;;4.25;1.10;;;18.80;99.90;;;;;;4987025;28;20115;-75
2022/07/02 08:06:57;;;;;;;4.15;1.40;;;18.80;99.90;;;;;;4982346;28;20421;-74
2022/07/02 08:09:23;;;;;;;11.82;1.52;;;18.90;99.90;;;;;;4969264;28;20548;-77
2022/07/02 08:11:49;;;;;;;5.22;1.40;;;18.90;99.90;;;;;;4989527;28;20026;-80
2022/07/02 08:14:14;;;;;;;5.13;1.15;;;19.10;99.90;;;;;;4987874;28;20405;-78
2022/07/02 08:16:40;;;;;;;7.15;2.00;;;19.10;99.90;;;;;;4988088;28;20027;-75
2022/07/02 08:19:06;;;;;;;5.50;1.50;;;19.30;99.90;;;;;;4987509;28;20034;-75
2022/07/02 08:21:31;;;;;;;5.50;1.60;;;19.30;99.90;;;;;;4984749;28;20128;-77
2022/07/02 08:24:00;;;;;;;10.73;1.50;;;19.30;99.90;;;;;;4985687;28;20450;-84
2022/07/02 08:26:26;;;;;;;3.38;1.20;;;19.40;99.90;;;;;;4967170;28;20033;-81
2022/07/02 08:28:52;;;;;;;3.70;1.08;;;19.40;99.90;;;;;;4968467;28;20034;-81
2022/07/02 08:31:17;;;;;;;6.93;1.75;;;19.50;99.90;;;;;;4987185;28;20117;-76
2022/07/02 08:33:43;;;;;;;3.65;1.52;;;19.40;99.90;;;;;;4989092;28;20026;-76
2022/07/02 08:36:10;;;;;;;2.90;1.40;;;19.50;99.90;;;;;;4985566;28;20113;-76
2022/07/02 08:38:36;;;;;;;5.15;1.38;;;19.50;99.90;;;;;;4986918;28;20035;-75
2022/07/02 08:41:03;;;;;;;4.50;1.55;;;19.50;99.90;;;;;;5002723;28;20049;-74
2022/07/02 08:43:31;;;;;;;2.85;1.63;;;19.60;99.90;;;;;;4986111;28;20486;-77
2022/07/02 08:46:02;;;;;;;4.47;1.20;;;19.60;99.90;;;;;;4987899;28;20026;-76
2022/07/02 08:48:32;;;;;;;2.92;1.35;;;19.70;99.90;;;;;;4986394;28;20030;-77
2022/07/02 08:50:57;;;;;;;4.60;1.20;;;19.70;99.90;;;;;;4982749;28;20034;-77
2022/07/02 08:53:23;;;;;;;6.18;1.70;;;19.80;99.90;;;;;;4983472;28;20031;-78
2022/07/02 08:55:50;;;;;;;4.25;1.60;;;19.90;99.90;;;;;;4977855;28;20373;-79
2022/07/02 08:58:17;;;;;;;5.78;1.30;;;19.90;99.90;;;;;;4968034;28;20062;-77
2022/07/02 09:00:44;;;;;;;3.95;1.27;;;19.90;99.90;;;;;;4989036;28;20500;-78
2022/07/02 09:03:13;;;;;;;5.95;1.27;;;20.00;99.90;;;;;;4980237;28;20389;-76
2022/07/02 09:05:41;;;;;;;4.32;1.00;;;20.10;99.90;;;;;;4976702;28;20045;-75
2022/07/02 09:08:10;;;;;;;5.38;1.58;;;20.20;99.90;;;;;;4975299;28;20108;-78
2022/07/02 09:10:37;;;;;;;4.20;1.00;;;20.20;99.20;;;;;;4979867;28;20037;-79
2022/07/02 09:13:05;;;;;;;2.53;0.90;;;20.30;99.30;;;;;;4982641;28;20038;-75
2022/07/02 09:15:33;;;;;;;3.67;1.00;;;20.40;98.50;;;;;;4977764;28;20030;-76
2022/07/02 09:17:59;;;;;;;5.65;1.00;;;20.40;99.30;;;;;;4980700;28;20034;-75
2022/07/02 09:20:25;;;;;;;3.05;1.00;;;20.40;98.80;;;;;;4978145;28;20556;-75
2022/07/02 09:22:53;;;;;;;2.70;0.90;;;20.40;98.40;;;;;;4984386;28;20026;-76
2022/07/02 09:25:27;;;;;;;2.88;1.13;;;20.40;98.80;;;;;;4979886;28;20608;-76
2022/07/02 09:28:04;;;;;;;5.55;1.40;;;20.40;98.70;;;;;;4986794;28;20138;-76
2022/07/02 09:30:32;;;;;;;4.57;1.73;;;20.50;98.30;;;;;;4988161;28;20478;-75
2022/07/02 09:35:45;;;;;;;5.95;1.33;;;20.60;96.90;;;;;;5018797;28;20027;-77
2022/07/02 09:38:11;;;;;;;4.07;1.95;;;20.60;96.70;;;;;;4997810;28;20030;-78
2022/07/02 09:40:38;;;;;;;3.20;1.08;;;20.50;98.00;;;;;;4992356;28;20041;-77
2022/07/02 09:43:04;;;;;;;7.95;1.33;;;20.50;96.20;;;;;;4979154;28;20022;-78
2022/07/02 09:45:29;;;;;;;2.33;0.98;;;20.60;95.60;;;;;;4990263;28;20022;-77
2022/07/02 09:47:55;;;;;;;3.55;1.20;;;20.60;95.50;;;;;;4974721;28;20406;-78
2022/07/02 09:50:23;;;;;;;2.75;1.08;;;20.70;95.30;;;;;;4993186;28;20019;-77
2022/07/02 09:52:51;;;;;;;2.80;1.00;;;20.80;93.40;;;;;;4995365;28;20038;-77
2022/07/02 09:55:21;;;;;;;2.97;1.13;;;21.00;94.60;;;;;;4993720;28;20049;-79
2022/07/02 09:57:51;;;;;;;4.25;1.17;;;21.20;94.60;;;;;;4999127;28;20196;-77
2022/07/02 10:00:18;;;;;;;3.65;1.00;;;21.20;95.00;;;;;;4998351;28;20041;-78
2022/07/02 10:02:44;;;;;;;5.57;1.25;;;21.20;95.20;;;;;;4999750;28;20555;-78
2022/07/02 10:05:09;;;;;;;5.65;1.30;;;21.00;95.20;;;;;;5026178;28;20053;-77
2022/07/02 10:07:35;;;;;;;3.50;1.00;;;21.00;95.40;;;;;;5014739;28;20034;-77
2022/07/02 10:10:05;;;;;;;4.53;1.45;;;21.10;95.40;;;;;;4997624;28;20034;-77
2022/07/02 10:12:31;;;;;;;2.17;1.00;;;21.00;95.00;;;;;;4991218;28;20044;-77
2022/07/02 10:14:58;;;;;;;263.75;158.85;;;21.10;95.00;;;;;;4991329;28;20044;-77
2022/07/02 10:17:24;;;;;;;18.88;12.23;;;21.20;92.50;;;;;;4989575;28;20029;-79
2022/07/02 10:19:52;;;;;;;42.25;30.60;;;21.20;92.80;;;;;;4992750;28;20409;-77
2022/07/02 10:22:20;;;;;;;359.52;258.65;;;21.20;94.50;;;;;;4988948;28;20042;-76
2022/07/02 10:24:46;;;;;;;11.20;6.57;;;21.40;93.20;;;;;;4996492;28;20042;-79
2022/07/02 10:27:14;;;;;;;2.80;1.60;;;21.60;92.50;;;;;;4994160;28;20035;-77
2022/07/02 10:29:42;;;;;;;5.63;1.42;;;21.70;92.30;;;;;;4990610;28;20030;-78
2022/07/02 10:32:32;;;;;;;6.15;2.08;;;21.60;92.10;;;;;;4979442;28;20022;-79
2022/07/02 10:35:11;;;;;;;5.23;1.63;;;21.60;92.00;;;;;;4994297;28;20026;-79
2022/07/02 10:37:41;;;;;;;4.10;1.20;;;21.70;91.10;;;;;;5015891;28;20289;-77
2022/07/02 10:40:08;;;;;;;4.05;1.30;;;21.50;90.70;;;;;;4991384;28;20658;-77
2022/07/02 10:42:49;;;;;;;6.70;1.80;;;21.60;91.80;;;;;;4991335;28;20044;-78
2022/07/02 10:45:17;;;;;;;2.42;0.80;;;21.70;91.40;;;;;;4988912;28;20038;-76
2022/07/02 10:47:58;;;;;;;3.28;1.08;;;21.60;90.10;;;;;;4994314;28;20049;-76
2022/07/02 10:50:41;;;;;;;2.75;0.73;;;21.50;88.10;;;;;;4990524;28;20106;-76
2022/07/02 10:53:20;;;;;;;2.83;1.40;;;21.50;88.40;;;;;;4991582;28;20037;-75
2022/07/02 10:55:55;;;;;;;3.83;1.48;;;21.60;91.40;;;;;;4972658;28;20145;-75
2022/07/02 10:58:31;;;;;;;5.15;1.50;;;21.70;90.90;;;;;;4989501;28;20030;-76
2022/07/02 11:01:15;;;;;;;3.75;1.55;;;21.80;91.20;;;;;;4995105;28;20026;-75
2022/07/02 11:04:01;;;;;;;3.90;1.42;;;21.90;90.00;;;;;;4986335;28;20053;-78
2022/07/02 11:06:31;;;;;;;6.97;1.17;;;22.10;90.40;;;;;;4982687;28;20023;-76
2022/07/02 11:08:59;;;;;;;2.85;1.30;;;22.10;87.80;;;;;;5012335;28;20034;-76
2022/07/02 11:11:35;;;;;;;4.13;1.52;;;22.10;90.10;;;;;;4973613;28;20034;-77
2022/07/02 11:14:08;;;;;;;3.97;1.35;;;22.10;90.80;;;;;;4988479;28;20026;-76
2022/07/02 11:16:47;;;;;;;2.78;1.30;;;22.00;86.10;;;;;;4974165;28;20041;-77
2022/07/02 11:19:25;;;;;;;1.98;0.85;;;22.10;88.30;;;;;;4992495;28;20680;-77
2022/07/02 11:21:55;;;;;;;4.97;0.80;;;22.40;88.50;;;;;;4976317;28;20019;-78
2022/07/02 11:24:23;;;;;;;2.78;0.80;;;22.70;86.60;;;;;;4992731;28;20022;-78
2022/07/02 11:26:49;;;;;;;2.65;0.95;;;23.60;79.10;;;;;;4990559;28;20019;-77
2022/07/02 11:29:15;;;;;;;4.88;1.42;;;25.30;74.00;;;;;;4991280;28;20034;-77
2022/07/02 11:31:47;;;;;;;2.95;1.10;;;26.80;71.80;;;;;;4986511;28;20030;-77
2022/07/02 11:34:24;;;;;;;3.53;0.98;;;28.10;62.00;;;;;;4990066;28;20027;-76
2022/07/02 11:36:51;;;;;;;8.43;3.47;;;29.10;58.90;;;;;;5011503;28;20030;-76
2022/07/02 11:39:19;;;;;;;9.07;3.40;;;29.00;56.70;;;;;;4991547;28;20498;-76
2022/07/02 11:41:46;;;;;;;18.80;10.57;;;28.30;58.90;;;;;;4975971;28;20031;-76
2022/07/02 11:44:21;;;;;;;10.25;5.15;;;29.20;58.40;;;;;;4992318;28;20065;-78
2022/07/02 11:46:49;;;;;;;13.13;7.13;;;31.00;55.20;;;;;;4992412;28;20509;-79
2022/07/02 11:49:24;;;;;;;10.20;6.63;;;31.80;52.30;;;;;;5015353;28;20505;-76
2022/07/02 11:51:53;;;;;;;2.85;1.38;;;31.20;51.90;;;;;;4990401;28;20070;-76
2022/07/02 11:54:20;;;;;;;5.60;3.35;;;29.90;50.40;;;;;;4993003;28;20030;-77
2022/07/02 11:56:47;;;;;;;4.57;2.00;;;29.10;53.90;;;;;;4990785;28;20393;-78
2022/07/02 11:59:16;;;;;;;6.13;2.60;;;28.50;53.60;;;;;;4991516;28;20034;-78
2022/07/02 12:01:44;;;;;;;3.95;1.90;;;27.80;56.00;;;;;;4972480;28;20030;-75
2022/07/02 12:04:13;;;;;;;1.98;0.98;;;27.70;55.10;;;;;;4989584;28;20078;-77
2022/07/02 12:06:45;;;;;;;3.83;1.30;;;27.10;54.00;;;;;;4988112;28;20033;-77
2022/07/02 12:09:15;;;;;;;3.35;0.90;;;26.40;56.00;;;;;;4990166;28;20026;-76
2022/07/02 12:11:44;;;;;;;3.30;1.23;;;25.70;53.60;;;;;;4994513;28;20153;-76
2022/07/02 12:14:11;;;;;;;4.40;1.77;;;25.30;57.70;;;;;;4989524;28;20033;-76
2022/07/02 12:16:39;;;;;;;3.20;1.23;;;25.60;58.70;;;;;;4988325;28;21871;-76
2022/07/02 12:19:16;;;;;;;4.85;1.77;;;25.60;57.30;;;;;;4989702;28;20644;-77
2022/07/02 12:21:50;;;;;;;4.45;1.10;;;25.80;58.60;;;;;;4991458;28;20030;-77
2022/07/02 12:24:25;;;;;;;4.32;1.60;;;25.50;59.00;;;;;;4990889;28;20026;-77
2022/07/02 12:27:03;;;;;;;5.05;1.30;;;25.10;61.10;;;;;;4994269;28;20039;-78
2022/07/02 12:32:24;;;;;;;5.07;1.90;;;24.70;56.70;;;;;;4992529;28;20096;-79
2022/07/02 12:34:56;;;;;;;2.05;1.10;;;25.00;59.60;;;;;;4992947;28;20057;-77
2022/07/02 12:37:25;;;;;;;1.73;0.98;;;26.20;58.50;;;;;;4991975;28;20034;-77
2022/07/02 12:40:18;;;;;;;2.30;0.85;;;26.50;56.50;;;;;;4989439;28;20022;-78
2022/07/02 12:42:46;;;;;;;3.63;1.13;;;27.20;56.10;;;;;;4990370;28;20517;-78
2022/07/02 12:45:21;;;;;;;6.43;1.20;;;28.10;53.90;;;;;;4989312;28;20747;-76
2022/07/02 12:47:56;;;;;;;3.17;0.77;;;27.90;54.40;;;;;;4990762;28;20029;-78
2022/07/02 12:50:22;;;;;;;2.22;1.20;;;27.80;54.10;;;;;;4989076;28;20042;-77
2022/07/02 12:52:48;;;;;;;2.00;0.80;;;27.50;54.20;;;;;;4992766;28;20027;-78
2022/07/02 12:55:28;;;;;;;2.22;1.00;;;27.10;54.50;;;;;;4989197;28;20061;-79
2022/07/02 12:57:56;;;;;;;;;;;26.80;57.00;;;;;;5018329;22;20478;-75
2022/07/02 13:00:23;;;;;;;4.93;2.15;;;27.80;54.30;;;;;;5000827;28;20324;-76
2022/07/02 13:03:06;;;;;;;4.32;1.60;;;29.00;52.30;;;;;;5000640;28;20037;-76
2022/07/02 13:05:34;;;;;;;4.97;2.00;;;29.90;47.50;;;;;;4999861;28;20113;-77